createdAt,value
2018-06-29T00:00:34.340Z,20.57
2018-06-29T00:02:39.289Z,20.25
2018-06-29T00:04:44.278Z,20.43
2018-06-29T00:06:49.008Z,20.44
2018-06-29T00:08:53.819Z,20.47
2018-06-29T00:10:58.529Z,20.53
2018-06-29T00:13:03.503Z,20.53
2018-06-29T00:15:08.276Z,20.37
2018-06-29T00:17:13.208Z,20.19
2018-06-29T00:19:18.176Z,20.15
2018-06-29T00:21:23.017Z,20.09
2018-06-29T00:23:27.891Z,20.09
2018-06-29T00:25:32.630Z,20.06
2018-06-29T00:27:37.487Z,20.16
2018-06-29T00:29:42.292Z,20.10
2018-06-29T00:31:47.066Z,20.08
2018-06-29T00:33:51.846Z,19.98
2018-06-29T00:35:56.609Z,20.02
2018-06-29T00:38:01.495Z,19.98
2018-06-29T00:40:06.305Z,19.93
2018-06-29T00:42:11.085Z,19.89
2018-06-29T00:44:15.910Z,19.78
2018-06-29T00:46:20.785Z,19.97
2018-06-29T00:48:25.572Z,19.90
2018-06-29T00:50:30.470Z,19.92
2018-06-29T00:52:35.342Z,19.82
2018-06-29T00:54:40.433Z,19.68
2018-06-29T00:56:45.215Z,19.63
2018-06-29T00:58:49.613Z,19.61
2018-06-29T01:00:54.664Z,19.57
2018-06-29T01:02:59.481Z,19.53
2018-06-29T01:05:04.396Z,19.43
2018-06-29T01:07:09.206Z,19.39
2018-06-29T01:09:14.277Z,19.39
2018-06-29T01:11:19.084Z,19.40
2018-06-29T01:13:23.932Z,19.36
2018-06-29T01:15:28.684Z,19.40
2018-06-29T01:17:33.542Z,19.30
2018-06-29T01:19:38.351Z,19.47
2018-06-29T01:21:43.286Z,19.41
2018-06-29T01:23:47.973Z,19.41
2018-06-29T01:25:52.767Z,19.24
2018-06-29T01:27:57.643Z,19.19
2018-06-29T01:30:02.518Z,19.24
2018-06-29T01:32:07.365Z,19.24
2018-06-29T01:34:12.218Z,19.23
2018-06-29T01:36:16.901Z,19.17
2018-06-29T01:38:21.679Z,19.08
2018-06-29T01:40:26.498Z,19.00
2018-06-29T01:42:30.962Z,19.09
2018-06-29T01:44:35.696Z,18.93
2018-06-29T01:46:40.571Z,18.93
2018-06-29T01:51:00.249Z,18.89
2018-06-29T01:53:05.194Z,18.72
2018-06-29T01:55:10.174Z,18.82
2018-06-29T01:57:15.052Z,18.76
2018-06-29T01:59:20.157Z,18.75
2018-06-29T02:01:25.098Z,18.69
2018-06-29T02:03:29.988Z,18.69
2018-06-29T02:05:34.819Z,18.60
2018-06-29T02:07:39.569Z,18.69
2018-06-29T02:11:59.521Z,18.61
2018-06-29T02:14:04.565Z,18.63
2018-06-29T02:16:09.682Z,18.56
2018-06-29T02:18:14.515Z,18.47
2018-06-29T02:20:19.688Z,18.38
2018-06-29T02:22:24.521Z,18.47
2018-06-29T02:24:29.406Z,18.46
2018-06-29T02:26:34.274Z,18.42
2018-06-29T02:28:39.152Z,17.93
2018-06-29T02:30:44.186Z,18.30
2018-06-29T02:32:49.325Z,18.27
2018-06-29T02:34:54.408Z,18.26
2018-06-29T02:36:59.225Z,18.16
2018-06-29T02:39:05.043Z,18.13
2018-06-29T02:41:10.057Z,18.03
2018-06-29T02:43:14.822Z,18.15
2018-06-29T02:45:19.753Z,18.12
2018-06-29T02:47:24.453Z,18.09
2018-06-29T02:49:29.329Z,18.09
2018-06-29T02:51:34.302Z,18.08
2018-06-29T02:53:39.119Z,18.18
2018-06-29T02:55:44.297Z,18.11
2018-06-29T02:57:49.234Z,18.12
2018-06-29T02:59:54.025Z,17.74
2018-06-29T03:01:58.966Z,17.92
2018-06-29T03:04:03.845Z,17.96
2018-06-29T03:06:09.106Z,17.90
2018-06-29T03:08:14.131Z,17.38
2018-06-29T03:10:18.961Z,17.83
2018-06-29T03:12:23.934Z,17.93
2018-06-29T03:14:28.822Z,17.96
2018-06-29T03:16:33.583Z,17.91
2018-06-29T03:18:38.518Z,17.83
2018-06-29T03:20:43.620Z,17.89
2018-06-29T03:22:48.670Z,17.80
2018-06-29T03:24:53.737Z,17.87
2018-06-29T03:26:58.729Z,17.77
2018-06-29T03:29:03.601Z,17.75
2018-06-29T03:31:08.141Z,17.58
2018-06-29T03:33:12.588Z,17.50
2018-06-29T03:35:17.357Z,17.58
2018-06-29T03:37:22.140Z,17.52
2018-06-29T03:39:27.119Z,17.46
2018-06-29T03:41:32.027Z,17.54
2018-06-29T03:43:36.862Z,17.53
2018-06-29T03:45:41.724Z,17.55
2018-06-29T03:47:46.683Z,17.60
2018-06-29T03:49:51.489Z,17.55
2018-06-29T03:51:56.336Z,17.60
2018-06-29T03:54:01.194Z,17.66
2018-06-29T03:56:06.249Z,17.69
2018-06-29T03:58:10.705Z,17.79
2018-06-29T04:00:15.538Z,17.63
2018-06-29T04:02:20.594Z,17.55
2018-06-29T04:04:25.391Z,17.59
2018-06-29T04:06:30.215Z,17.56
2018-06-29T04:08:35.179Z,17.52
2018-06-29T04:12:54.963Z,17.48
2018-06-29T04:14:59.363Z,17.68
2018-06-29T04:17:04.206Z,17.61
2018-06-29T04:19:09.066Z,17.65
2018-06-29T04:23:24.953Z,17.62
2018-06-29T04:25:29.865Z,17.64
2018-06-29T04:27:34.959Z,17.71
2018-06-29T04:29:40.311Z,17.56
2018-06-29T04:31:45.169Z,17.58
2018-06-29T04:33:49.969Z,17.58
2018-06-29T04:35:54.793Z,17.72
2018-06-29T04:37:59.525Z,17.67
2018-06-29T04:40:04.889Z,17.67
2018-06-29T04:42:09.943Z,17.75
2018-06-29T04:44:14.847Z,17.72
2018-06-29T04:46:19.692Z,17.74
2018-06-29T04:48:24.553Z,17.68
2018-06-29T04:50:29.523Z,17.70
2018-06-29T04:52:34.340Z,17.79
2018-06-29T04:54:39.381Z,17.76
2018-06-29T04:56:44.309Z,17.80
2018-06-29T04:58:49.282Z,17.78
2018-06-29T05:00:55.312Z,17.79
2018-06-29T05:03:00.280Z,17.88
2018-06-29T05:05:05.314Z,17.82
2018-06-29T05:07:10.843Z,17.77
2018-06-29T05:09:15.803Z,17.56
2018-06-29T05:11:20.748Z,17.83
2018-06-29T05:13:27.080Z,18.02
2018-06-29T05:15:31.967Z,18.17
2018-06-29T05:17:36.743Z,18.09
2018-06-29T05:19:41.693Z,18.09
2018-06-29T05:21:46.561Z,18.16
2018-06-29T05:23:51.693Z,18.16
2018-06-29T05:25:56.583Z,18.23
2018-06-29T05:28:01.748Z,18.25
2018-06-29T05:30:17.178Z,18.35
2018-06-29T05:32:22.161Z,18.44
2018-06-29T05:34:28.088Z,18.33
2018-06-29T05:36:33.017Z,18.26
2018-06-29T05:38:37.928Z,18.38
2018-06-29T05:40:43.016Z,18.43
2018-06-29T05:42:49.140Z,18.43
2018-06-29T05:44:54.062Z,18.46
2018-06-29T05:46:58.968Z,18.45
2018-06-29T05:49:03.921Z,18.45
2018-06-29T05:51:08.840Z,18.52
2018-06-29T05:53:13.759Z,18.52
2018-06-29T05:55:19.428Z,18.79
2018-06-29T05:57:25.506Z,18.63
2018-06-29T05:59:30.897Z,18.82
2018-06-29T06:01:35.727Z,18.70
2018-06-29T06:03:40.572Z,18.76
2018-06-29T06:05:45.424Z,18.79
2018-06-29T06:07:50.484Z,18.77
2018-06-29T06:09:55.498Z,18.85
2018-06-29T06:12:00.494Z,18.83
2018-06-29T06:14:05.982Z,19.10
2018-06-29T06:16:10.822Z,19.06
2018-06-29T06:18:15.600Z,19.15
2018-06-29T06:20:20.473Z,19.23
2018-06-29T06:22:25.320Z,19.21
2018-06-29T06:24:30.298Z,19.33
2018-06-29T06:26:35.519Z,19.21
2018-06-29T06:28:40.549Z,19.19
2018-06-29T06:30:45.459Z,19.23
2018-06-29T06:32:50.482Z,19.25
2018-06-29T06:34:55.437Z,19.28
2018-06-29T06:37:00.394Z,19.30
2018-06-29T06:39:08.547Z,19.48
2018-06-29T06:41:13.489Z,19.42
2018-06-29T06:43:18.316Z,19.45
2018-06-29T06:45:23.083Z,19.51
2018-06-29T06:47:27.867Z,19.49
2018-06-29T06:49:37.045Z,19.81
2018-06-29T06:51:42.014Z,19.83
2018-06-29T06:53:46.914Z,19.96
2018-06-29T06:55:51.892Z,20.06
2018-06-29T06:57:56.891Z,20.11
2018-06-29T07:00:01.735Z,20.14
2018-06-29T07:02:06.838Z,20.19
2018-06-29T07:04:11.472Z,20.08
2018-06-29T07:06:16.312Z,20.25
2018-06-29T07:08:21.241Z,20.18
2018-06-29T07:10:26.251Z,20.16
2018-06-29T07:12:31.267Z,20.33
2018-06-29T07:14:36.129Z,20.32
2018-06-29T07:16:41.076Z,20.56
2018-06-29T07:18:46.059Z,20.66
2018-06-29T07:20:50.989Z,20.66
2018-06-29T07:22:55.854Z,20.78
2018-06-29T07:25:00.776Z,20.84
2018-06-29T07:27:05.753Z,20.92
2018-06-29T07:29:10.832Z,20.75
2018-06-29T07:31:15.782Z,20.96
2018-06-29T07:33:21.174Z,20.97
2018-06-29T07:35:25.680Z,21.08
2018-06-29T07:37:30.912Z,21.00
2018-06-29T07:39:36.004Z,21.22
2018-06-29T07:41:41.140Z,21.52
2018-06-29T07:43:45.893Z,21.47
2018-06-29T07:45:50.834Z,21.48
2018-06-29T07:47:55.807Z,21.51
2018-06-29T07:50:00.743Z,21.59
2018-06-29T07:52:05.575Z,21.72
2018-06-29T07:54:10.646Z,21.57
2018-06-29T07:56:15.580Z,21.81
2018-06-29T07:58:20.669Z,21.93
2018-06-29T08:00:25.642Z,22.18
2018-06-29T08:02:30.662Z,22.26
2018-06-29T08:04:35.736Z,22.40
2018-06-29T08:06:40.799Z,22.33
2018-06-29T08:08:45.932Z,22.42
2018-06-29T08:10:50.857Z,22.41
2018-06-29T08:12:55.707Z,22.64
2018-06-29T08:15:00.725Z,22.72
2018-06-29T08:17:05.786Z,22.80
2018-06-29T08:19:10.825Z,22.66
2018-06-29T08:21:15.779Z,22.92
2018-06-29T08:23:21.182Z,22.94
2018-06-29T08:25:26.160Z,23.00
2018-06-29T08:27:31.025Z,23.10
2018-06-29T08:29:36.214Z,23.08
2018-06-29T08:31:41.044Z,23.21
2018-06-29T08:33:45.965Z,23.19
2018-06-29T08:35:50.454Z,23.42
2018-06-29T08:37:55.267Z,23.56
2018-06-29T08:40:00.140Z,23.31
2018-06-29T08:42:05.041Z,23.79
2018-06-29T08:44:09.873Z,23.80
2018-06-29T08:46:14.965Z,23.87
2018-06-29T08:48:19.855Z,23.98
2018-06-29T08:50:24.220Z,24.03
2018-06-29T08:52:29.003Z,23.89
2018-06-29T08:54:34.002Z,23.96
2018-06-29T08:56:38.879Z,24.14
2018-06-29T08:58:43.917Z,24.00
2018-06-29T09:00:48.912Z,24.34
2018-06-29T09:02:53.472Z,24.28
2018-06-29T09:04:58.416Z,24.36
2018-06-29T09:07:03.121Z,24.31
2018-06-29T09:09:10.338Z,24.43
2018-06-29T09:11:15.138Z,24.51
2018-06-29T09:13:19.851Z,24.53
2018-06-29T09:15:24.664Z,24.59
2018-06-29T09:17:29.588Z,24.59
2018-06-29T09:19:34.657Z,24.41
2018-06-29T09:21:39.875Z,24.68
2018-06-29T09:23:44.813Z,24.69
2018-06-29T09:25:49.813Z,24.80
2018-06-29T09:27:54.790Z,24.75
2018-06-29T09:30:00.207Z,24.70
2018-06-29T09:32:04.997Z,25.06
2018-06-29T09:34:09.837Z,25.08
2018-06-29T09:36:14.686Z,25.27
2018-06-29T09:38:19.767Z,25.30
2018-06-29T09:40:24.679Z,25.24
2018-06-29T09:42:29.604Z,25.22
2018-06-29T09:44:34.363Z,25.13
2018-06-29T09:46:39.369Z,25.22
2018-06-29T09:48:44.298Z,25.26
2018-06-29T09:50:49.142Z,25.34
2018-06-29T09:52:53.945Z,25.47
2018-06-29T09:54:58.701Z,25.52
2018-06-29T09:57:03.505Z,25.56
2018-06-29T09:59:08.376Z,25.66
2018-06-29T10:01:13.560Z,25.66
2018-06-29T10:03:18.513Z,25.63
2018-06-29T10:05:23.320Z,25.62
2018-06-29T10:07:28.131Z,25.53
2018-06-29T10:09:32.994Z,25.72
2018-06-29T10:11:38.158Z,25.74
2018-06-29T10:13:43.077Z,25.75
2018-06-29T10:15:47.809Z,25.84
2018-06-29T10:17:52.708Z,25.63
2018-06-29T10:19:57.562Z,25.66
2018-06-29T10:22:08.887Z,25.61
2018-06-29T10:24:13.651Z,25.78
2018-06-29T10:26:18.856Z,25.80
2018-06-29T10:28:23.826Z,25.91
2018-06-29T10:30:28.666Z,26.03
2018-06-29T10:32:33.385Z,26.20
2018-06-29T10:34:38.173Z,26.21
2018-06-29T10:36:42.975Z,26.24
2018-06-29T10:38:47.749Z,26.02
2018-06-29T10:40:52.515Z,26.43
2018-06-29T10:42:57.347Z,26.46
2018-06-29T10:45:02.162Z,26.46
2018-06-29T10:47:07.004Z,26.51
2018-06-29T10:49:11.841Z,26.62
2018-06-29T10:53:29.082Z,26.32
2018-06-29T10:55:33.800Z,26.51
2018-06-29T10:57:38.511Z,26.63
2018-06-29T10:59:43.357Z,26.62
2018-06-29T11:01:48.186Z,26.62
2018-06-29T11:03:53.061Z,26.34
2018-06-29T11:05:57.957Z,26.76
2018-06-29T11:08:02.651Z,26.77
2018-06-29T11:10:08.789Z,26.63
2018-06-29T11:12:13.640Z,26.69
2018-06-29T11:14:18.621Z,26.66
2018-06-29T11:16:23.476Z,26.62
2018-06-29T11:18:28.446Z,26.72
2018-06-29T11:20:33.560Z,26.66
2018-06-29T11:22:38.345Z,26.83
2018-06-29T11:24:43.099Z,26.84
2018-06-29T11:26:48.014Z,26.91
2018-06-29T11:28:53.594Z,27.08
2018-06-29T11:30:58.282Z,27.05
2018-06-29T11:33:03.016Z,27.01
2018-06-29T11:35:07.746Z,27.11
2018-06-29T11:37:12.498Z,26.94
2018-06-29T11:39:17.229Z,27.13
2018-06-29T11:41:22.038Z,27.13
2018-06-29T11:43:26.772Z,27.12
2018-06-29T11:45:31.483Z,27.08
2018-06-29T11:47:36.260Z,27.26
2018-06-29T11:49:41.018Z,27.29
2018-06-29T11:51:45.722Z,27.16
2018-06-29T11:53:50.509Z,27.32
2018-06-29T11:55:55.305Z,27.16
2018-06-29T11:58:00.211Z,26.95
2018-06-29T12:00:05.493Z,27.31
2018-06-29T12:02:10.367Z,27.25
2018-06-29T12:04:15.126Z,27.38
2018-06-29T12:06:19.871Z,27.38
2018-06-29T12:08:24.955Z,27.68
2018-06-29T12:10:29.759Z,27.59
2018-06-29T12:12:34.153Z,27.38
2018-06-29T12:14:38.984Z,27.51
2018-06-29T12:16:43.854Z,27.33
2018-06-29T12:18:49.581Z,27.40
2018-06-29T12:20:54.302Z,27.28
2018-06-29T12:22:59.112Z,27.34
2018-06-29T12:25:03.858Z,27.32
2018-06-29T12:27:08.771Z,27.28
2018-06-29T12:29:13.683Z,27.20
2018-06-29T12:31:18.522Z,27.37
2018-06-29T12:33:23.502Z,27.49
2018-06-29T12:35:28.454Z,27.72
2018-06-29T12:37:34.326Z,27.73
2018-06-29T12:39:39.441Z,27.88
2018-06-29T12:41:44.680Z,27.91
2018-06-29T12:43:49.913Z,27.96
2018-06-29T12:45:55.128Z,28.02
2018-06-29T12:48:00.581Z,27.90
2018-06-29T12:50:05.591Z,28.02
2018-06-29T12:52:10.738Z,28.09
2018-06-29T12:54:15.859Z,28.20
2018-06-29T12:56:20.646Z,28.07
2018-06-29T12:58:25.836Z,28.27
2018-06-29T13:00:30.668Z,28.25
2018-06-29T13:02:35.756Z,28.30
2018-06-29T13:04:41.277Z,28.08
2018-06-29T13:06:46.058Z,28.01
2018-06-29T13:08:50.897Z,28.14
2018-06-29T13:10:56.802Z,28.11
2018-06-29T13:13:01.850Z,28.20
2018-06-29T13:15:07.217Z,28.35
2018-06-29T13:17:12.097Z,28.34
2018-06-29T13:19:17.003Z,28.33
2018-06-29T13:21:21.894Z,28.52
2018-06-29T13:23:26.788Z,28.52
2018-06-29T13:25:31.790Z,28.49
2018-06-29T13:27:37.376Z,28.64
2018-06-29T13:29:42.338Z,28.52
2018-06-29T13:31:47.160Z,28.56
2018-06-29T13:33:52.035Z,28.77
2018-06-29T13:35:56.770Z,28.70
2018-06-29T13:38:01.691Z,28.81
2018-06-29T13:40:06.672Z,28.52
2018-06-29T13:42:12.014Z,27.57
2018-06-29T13:44:17.041Z,27.97
2018-06-29T13:46:22.253Z,27.71
2018-06-29T13:48:27.464Z,29.09
2018-06-29T13:50:33.994Z,28.94
2018-06-29T13:52:39.122Z,29.08
2018-06-29T13:54:45.024Z,28.23
2018-06-29T13:56:49.950Z,28.86
2018-06-29T13:58:55.191Z,28.96
2018-06-29T14:01:00.064Z,28.69
2018-06-29T14:03:05.045Z,28.79
2018-06-29T14:05:10.065Z,28.86
2018-06-29T14:07:15.004Z,29.15
2018-06-29T14:09:20.949Z,29.08
2018-06-29T14:11:25.719Z,28.97
2018-06-29T14:13:30.328Z,27.69
2018-06-29T14:15:35.163Z,29.18
2018-06-29T14:17:40.140Z,28.98
2018-06-29T14:19:45.065Z,29.31
2018-06-29T14:21:49.817Z,29.15
2018-06-29T14:23:54.599Z,29.06
2018-06-29T14:25:59.782Z,29.27
2018-06-29T14:28:04.689Z,29.18
2018-06-29T14:30:09.583Z,29.23
2018-06-29T14:32:14.654Z,29.40
2018-06-29T14:34:19.522Z,29.40
2018-06-29T14:36:24.326Z,29.36
2018-06-29T14:38:29.332Z,29.10
2018-06-29T14:40:34.545Z,28.47
2018-06-29T14:42:39.584Z,29.26
2018-06-29T14:44:44.492Z,29.32
2018-06-29T14:46:49.454Z,29.87
2018-06-29T14:48:54.331Z,30.13
2018-06-29T14:50:59.335Z,30.55
2018-06-29T14:53:04.253Z,30.64
2018-06-29T14:55:09.263Z,30.70
2018-06-29T14:57:14.199Z,30.74
2018-06-29T14:59:19.055Z,30.32
2018-06-29T15:01:24.138Z,30.17
2018-06-29T15:03:29.162Z,29.99
2018-06-29T15:05:34.686Z,30.01
2018-06-29T15:07:39.758Z,29.60
2018-06-29T15:09:44.518Z,29.51
2018-06-29T15:11:49.517Z,29.63
2018-06-29T15:13:54.744Z,29.68
2018-06-29T15:16:00.554Z,29.81
2018-06-29T15:18:05.718Z,29.70
2018-06-29T15:20:10.525Z,29.78
2018-06-29T15:22:15.459Z,29.77
2018-06-29T15:24:20.742Z,29.84
2018-06-29T15:26:26.079Z,29.81
2018-06-29T15:28:30.972Z,29.85
2018-06-29T15:30:35.785Z,29.85
2018-06-29T15:32:40.768Z,29.69
2018-06-29T15:34:46.049Z,29.53
2018-06-29T15:36:50.986Z,29.69
2018-06-29T15:38:55.848Z,29.57
2018-06-29T15:41:00.824Z,29.61
2018-06-29T15:43:07.070Z,29.63
2018-06-29T15:45:13.248Z,29.54
2018-06-29T15:47:18.069Z,29.85
2018-06-29T15:49:23.203Z,29.93
2018-06-29T15:51:28.155Z,29.85
2018-06-29T15:53:33.058Z,29.63
2018-06-29T15:55:37.939Z,29.78
2018-06-29T15:57:42.884Z,29.58
2018-06-29T15:59:47.773Z,29.58
2018-06-29T16:01:52.685Z,29.67
2018-06-29T16:03:57.574Z,29.73
2018-06-29T16:06:02.610Z,29.83
2018-06-29T16:08:07.987Z,29.94
2018-06-29T16:10:12.825Z,29.98
2018-06-29T16:12:17.887Z,30.00
2018-06-29T16:14:22.666Z,29.83
2018-06-29T16:16:28.305Z,29.86
2018-06-29T16:18:33.201Z,30.07
2018-06-29T16:20:38.038Z,29.98
2018-06-29T16:22:43.062Z,30.20
2018-06-29T16:24:47.995Z,30.22
2018-06-29T16:26:53.069Z,30.28
2018-06-29T16:28:58.013Z,29.86
2018-06-29T16:31:03.143Z,30.39
2018-06-29T16:33:08.484Z,30.65
2018-06-29T16:35:13.382Z,30.62
2018-06-29T16:37:18.388Z,30.84
2018-06-29T16:39:23.487Z,30.53
2018-06-29T16:41:28.409Z,30.68
2018-06-29T16:43:33.244Z,30.85
2018-06-29T16:45:38.134Z,31.28
2018-06-29T16:47:44.077Z,31.41
2018-06-29T16:49:48.976Z,31.55
2018-06-29T16:51:53.944Z,32.12
2018-06-29T16:56:15.597Z,32.71
2018-06-29T16:58:20.823Z,32.84
2018-06-29T17:00:27.244Z,33.07
2018-06-29T17:02:32.270Z,33.06
2018-06-29T17:04:37.521Z,32.59
2018-06-29T17:06:42.918Z,32.38
2018-06-29T17:08:48.370Z,32.59
2018-06-29T17:10:53.607Z,32.33
2018-06-29T17:12:58.109Z,33.28
2018-06-29T17:15:03.080Z,33.30
2018-06-29T17:17:08.003Z,33.53
2018-06-29T17:19:12.959Z,33.14
2018-06-29T17:21:18.481Z,33.39
2018-06-29T17:23:23.614Z,33.50
2018-06-29T17:25:29.671Z,32.64
2018-06-29T17:27:35.344Z,33.02
2018-06-29T17:29:41.305Z,32.99
2018-06-29T17:31:46.055Z,32.94
2018-06-29T17:33:50.950Z,33.12
2018-06-29T17:35:55.636Z,32.74
2018-06-29T17:38:02.870Z,32.25
2018-06-29T17:40:07.731Z,32.24
2018-06-29T17:42:12.524Z,32.36
2018-06-29T17:44:17.345Z,32.58
2018-06-29T17:46:22.329Z,32.35
2018-06-29T17:48:27.254Z,31.32
2018-06-29T17:50:32.002Z,31.88
2018-06-29T17:52:36.947Z,31.77
2018-06-29T17:54:41.897Z,32.12
2018-06-29T17:56:46.915Z,31.96
2018-06-29T17:58:52.242Z,32.02
2018-06-29T18:00:57.138Z,31.80
2018-06-29T18:03:01.981Z,31.49
2018-06-29T18:05:07.047Z,31.48
2018-06-29T18:07:11.888Z,31.58
2018-06-29T18:09:16.702Z,31.38
2018-06-29T18:11:22.071Z,31.30
2018-06-29T18:13:28.027Z,30.91
2018-06-29T18:15:33.622Z,31.69
2018-06-29T18:17:38.884Z,30.74
2018-06-29T18:19:44.084Z,31.55
2018-06-29T18:21:48.915Z,31.39
2018-06-29T18:23:54.276Z,31.09
2018-06-29T18:25:59.365Z,30.26
2018-06-29T18:28:04.669Z,29.81
2018-06-29T18:30:10.458Z,30.58
2018-06-29T18:32:15.281Z,30.31
2018-06-29T18:34:20.168Z,30.18
2018-06-29T18:36:25.005Z,30.15
2018-06-29T18:38:29.866Z,29.52
2018-06-29T18:40:34.666Z,29.25
2018-06-29T18:42:39.630Z,29.09
2018-06-29T18:44:44.615Z,28.78
2018-06-29T18:46:49.696Z,28.69
2018-06-29T18:49:03.769Z,28.34
2018-06-29T18:51:09.418Z,27.25
2018-06-29T18:53:14.706Z,27.20
2018-06-29T18:55:19.717Z,28.15
2018-06-29T18:57:24.672Z,27.81
2018-06-29T18:59:29.749Z,27.68
2018-06-29T19:01:34.620Z,27.64
2018-06-29T19:03:39.627Z,27.60
2018-06-29T19:05:44.619Z,27.40
2018-06-29T19:07:49.479Z,27.32
2018-06-29T19:09:54.650Z,27.31
2018-06-29T19:11:59.656Z,26.38
2018-06-29T19:14:04.807Z,27.21
2018-06-29T19:16:09.793Z,27.14
2018-06-29T19:18:14.700Z,27.00
2018-06-29T19:20:22.481Z,26.96
2018-06-29T19:22:27.781Z,26.87
2018-06-29T19:24:32.883Z,26.70
2018-06-29T19:26:37.908Z,26.61
2018-06-29T19:28:42.854Z,26.52
2018-06-29T19:30:47.612Z,26.42
2018-06-29T19:32:52.743Z,26.33
2018-06-29T19:34:57.669Z,26.41
2018-06-29T19:37:03.313Z,26.32
2018-06-29T19:39:10.445Z,26.23
2018-06-29T19:41:15.594Z,25.46
2018-06-29T19:43:21.347Z,26.02
2018-06-29T19:45:26.825Z,26.01
2018-06-29T19:47:31.809Z,25.75
2018-06-29T19:49:37.074Z,25.93
2018-06-29T19:51:42.079Z,25.84
2018-06-29T19:53:47.094Z,25.55
2018-06-29T19:55:52.548Z,25.30
2018-06-29T19:57:57.840Z,25.54
2018-06-29T20:00:03.472Z,25.49
2018-06-29T20:02:09.223Z,25.36
2018-06-29T20:04:14.974Z,25.42
2018-06-29T20:06:19.977Z,25.21
2018-06-29T20:08:25.104Z,25.19
2018-06-29T20:10:30.053Z,24.55
2018-06-29T20:12:35.277Z,24.98
2018-06-29T20:14:40.603Z,24.99
2018-06-29T20:16:46.776Z,24.98
2018-06-29T20:18:51.776Z,24.96
2018-06-29T20:20:56.788Z,24.47
2018-06-29T20:23:01.799Z,24.42
2018-06-29T20:25:07.082Z,24.73
2018-06-29T20:27:12.249Z,23.49
2018-06-29T20:29:17.147Z,24.57
2018-06-29T20:31:22.225Z,24.55
2018-06-29T20:33:27.077Z,24.44
2018-06-29T20:35:32.345Z,24.45
2018-06-29T20:37:37.515Z,23.85
2018-06-29T20:39:42.593Z,24.30
2018-06-29T20:41:47.498Z,24.28
2018-06-29T20:43:53.049Z,23.13
2018-06-29T20:45:58.066Z,24.26
2018-06-29T20:48:03.031Z,24.13
2018-06-29T20:50:08.102Z,23.52
2018-06-29T20:52:13.143Z,23.84
2018-06-29T20:54:19.151Z,24.09
2018-06-29T20:56:24.045Z,23.89
2018-06-29T20:58:28.886Z,23.91
2018-06-29T21:00:33.935Z,23.66
2018-06-29T21:02:39.122Z,23.80
2018-06-29T21:04:44.089Z,23.68
2018-06-29T21:06:49.214Z,23.61
2018-06-29T21:08:54.048Z,23.60
2018-06-29T21:10:58.989Z,23.35
2018-06-29T21:13:03.962Z,23.18
2018-06-29T21:15:08.873Z,23.42
2018-06-29T21:17:13.687Z,23.27
2018-06-29T21:19:18.645Z,23.17
2018-06-29T21:21:23.694Z,23.22
2018-06-29T21:23:28.528Z,23.19
2018-06-29T21:25:33.567Z,22.98
2018-06-29T21:27:38.843Z,22.46
2018-06-29T21:29:43.928Z,23.08
2018-06-29T21:31:48.964Z,23.07
2018-06-29T21:33:54.012Z,22.65
2018-06-29T21:35:59.376Z,22.84
2018-06-29T21:38:04.771Z,22.86
2018-06-29T21:40:09.630Z,22.93
2018-06-29T21:42:14.669Z,22.87
2018-06-29T21:44:19.541Z,22.92
2018-06-29T21:46:24.398Z,22.80
2018-06-29T21:48:29.328Z,22.84
2018-06-29T21:50:34.172Z,22.74
2018-06-29T21:52:39.127Z,22.70
2018-06-29T21:54:44.113Z,22.59
2018-06-29T21:56:49.246Z,22.66
2018-06-29T21:58:54.492Z,22.39
2018-06-29T22:00:59.556Z,22.56
2018-06-29T22:03:09.425Z,22.09
2018-06-29T22:05:14.622Z,21.81
2018-06-29T22:07:19.457Z,20.78
2018-06-29T22:09:24.502Z,22.29
2018-06-29T22:11:29.810Z,22.31
2018-06-29T22:13:34.727Z,22.25
2018-06-29T22:15:39.623Z,22.26
2018-06-29T22:17:46.431Z,22.25
2018-06-29T22:19:51.270Z,22.18
2018-06-29T22:21:56.208Z,21.27
2018-06-29T22:24:01.070Z,22.09
2018-06-29T22:26:06.188Z,22.08
2018-06-29T22:28:11.256Z,21.95
2018-06-29T22:30:16.227Z,21.95
2018-06-29T22:32:21.124Z,21.87
2018-06-29T22:34:26.019Z,21.68
2018-06-29T22:36:31.972Z,21.53
2018-06-29T22:38:36.998Z,21.63
2018-06-29T22:40:41.864Z,21.66
2018-06-29T22:42:46.653Z,21.52
2018-06-29T22:44:51.439Z,21.49
2018-06-29T22:46:56.336Z,21.46
2018-06-29T22:49:03.279Z,21.45
2018-06-29T22:51:08.131Z,21.37
2018-06-29T22:53:12.981Z,21.26
2018-06-29T22:55:17.779Z,21.16
2018-06-29T22:57:22.726Z,21.27
2018-06-29T22:59:27.555Z,21.26
2018-06-29T23:01:36.845Z,21.29
2018-06-29T23:03:46.856Z,21.11
2018-06-29T23:05:51.929Z,21.10
2018-06-29T23:07:56.739Z,21.07
2018-06-29T23:10:01.668Z,21.08
2018-06-29T23:12:06.726Z,21.17
2018-06-29T23:14:12.076Z,21.15
2018-06-29T23:16:17.633Z,20.65
2018-06-29T23:18:23.389Z,20.35
2018-06-29T23:20:28.511Z,20.92
2018-06-29T23:22:39.187Z,20.87
2018-06-29T23:24:44.275Z,20.78
2018-06-29T23:26:49.364Z,20.48
2018-06-29T23:28:54.288Z,20.50
2018-06-29T23:30:59.145Z,20.66
2018-06-29T23:33:04.574Z,20.58
2018-06-29T23:35:09.430Z,20.17
2018-06-29T23:37:14.471Z,20.51
2018-06-29T23:39:19.437Z,19.68
2018-06-29T23:41:24.342Z,20.44
2018-06-29T23:43:29.256Z,20.36
2018-06-29T23:45:34.424Z,20.33
2018-06-29T23:47:39.797Z,19.53
2018-06-29T23:49:44.787Z,20.33
2018-06-29T23:51:49.837Z,19.64
2018-06-29T23:53:54.994Z,20.16
2018-06-29T23:55:59.884Z,20.01
2018-06-29T23:58:04.777Z,20.09
